createdAt,value
2023-01-05T02:23:53.509Z,100.00
2023-01-05T02:49:42.739Z,100.00
2023-01-05T02:52:34.335Z,100.00
2023-01-05T02:55:23.525Z,100.00
2023-01-05T03:04:07.099Z,100.00
2023-01-05T03:12:12.869Z,100.00
2023-01-05T03:32:23.286Z,100.00
2023-01-05T03:46:27.413Z,100.00
2023-01-05T03:49:00.123Z,100.00
2023-01-05T03:51:30.149Z,100.00
2023-01-05T03:54:18.492Z,100.00
2023-01-05T04:03:31.723Z,100.00
2023-01-05T04:06:28.635Z,100.00
2023-01-05T05:25:39.192Z,100.00
2023-01-05T05:48:33.030Z,100.00
2023-01-05T06:00:36.384Z,100.00
2023-01-05T06:03:06.603Z,100.00
2023-01-05T06:05:39.201Z,100.00
2023-01-05T06:08:49.938Z,100.00
2023-01-05T06:11:54.035Z,100.00
2023-01-05T06:14:23.678Z,100.00
2023-01-05T06:16:58.050Z,100.00
2023-01-05T06:22:30.339Z,100.00
2023-01-05T06:26:33.046Z,100.00
2023-01-05T06:29:01.007Z,100.00
2023-01-05T06:31:36.670Z,100.00
2023-01-05T06:34:35.502Z,100.00
2023-01-05T06:37:06.521Z,100.00
2023-01-05T06:39:33.675Z,100.00
2023-01-05T06:42:09.018Z,100.00
2023-01-05T06:44:40.392Z,100.00
2023-01-05T06:47:07.523Z,100.00
2023-01-05T06:49:34.669Z,100.00
2023-01-05T06:52:02.380Z,100.00
2023-01-05T06:54:35.515Z,100.00
2023-01-05T06:57:11.868Z,100.00
2023-01-05T06:59:42.143Z,100.00
2023-01-05T07:02:18.032Z,100.00
2023-01-05T07:04:45.596Z,100.00
2023-01-05T07:07:16.680Z,100.00
2023-01-05T07:12:46.768Z,100.00
2023-01-05T07:15:16.168Z,100.00
2023-01-05T07:17:43.188Z,100.00
2023-01-05T07:20:15.286Z,100.00
2023-01-05T07:22:42.459Z,100.00
2023-01-05T07:25:19.501Z,100.00
2023-01-05T07:27:51.465Z,100.00
2023-01-05T07:30:18.733Z,100.00
2023-01-05T07:32:45.824Z,100.00
2023-01-05T07:35:12.639Z,100.00
2023-01-05T07:37:39.375Z,100.00
2023-01-05T07:40:07.069Z,100.00
2023-01-05T07:42:34.090Z,100.00
2023-01-05T07:45:02.094Z,100.00
2023-01-05T07:47:28.959Z,100.00
2023-01-05T07:49:58.143Z,100.00
2023-01-05T07:52:24.999Z,100.00
2023-01-05T07:54:51.987Z,100.00
2023-01-05T07:57:18.844Z,100.00
2023-01-05T07:59:51.964Z,100.00
2023-01-05T08:02:21.465Z,100.00
2023-01-05T08:04:48.386Z,100.00
2023-01-05T08:07:17.906Z,100.00
2023-01-05T08:10:03.912Z,100.00
2023-01-05T08:12:31.107Z,100.00
2023-01-05T08:14:58.161Z,100.00
2023-01-05T08:17:25.113Z,100.00
2023-01-05T08:19:51.928Z,100.00
2023-01-05T08:22:18.802Z,100.00
2023-01-05T08:24:45.624Z,100.00
2023-01-05T08:27:12.500Z,100.00
2023-01-05T08:29:42.158Z,100.00
2023-01-05T08:32:11.687Z,100.00
2023-01-05T08:34:41.989Z,100.00
2023-01-05T08:37:08.984Z,100.00
2023-01-05T08:39:36.254Z,100.00
2023-01-05T08:42:03.265Z,100.00
2023-01-05T08:44:30.066Z,100.00
2023-01-05T08:46:59.287Z,100.00
2023-01-05T08:49:35.147Z,100.00
2023-01-05T08:52:05.631Z,100.00
2023-01-05T08:54:41.327Z,100.00
2023-01-05T08:57:09.260Z,99.82
2023-01-05T08:59:36.050Z,99.29
2023-01-05T09:02:09.045Z,96.87
2023-01-05T09:04:36.023Z,96.84
2023-01-05T09:07:02.964Z,96.02
2023-01-05T09:09:29.896Z,96.92
2023-01-05T09:11:56.871Z,94.19
2023-01-05T09:14:23.898Z,94.41
2023-01-05T09:17:10.271Z,92.46
2023-01-05T09:19:39.560Z,90.81
2023-01-05T09:22:06.363Z,90.59
2023-01-05T09:24:45.682Z,90.33
2023-01-05T09:27:12.710Z,90.19
2023-01-05T09:29:39.544Z,90.87
2023-01-05T09:32:07.909Z,91.48
2023-01-05T09:34:34.681Z,90.26
2023-01-05T09:37:01.452Z,90.70
2023-01-05T09:39:42.963Z,89.57
2023-01-05T09:42:19.391Z,87.14
2023-01-05T09:45:17.482Z,87.42
2023-01-05T09:48:24.696Z,84.25
2023-01-05T09:57:32.656Z,77.28
2023-01-05T10:00:04.210Z,76.51
2023-01-05T10:02:50.071Z,73.33
2023-01-05T10:05:17.688Z,69.72
2023-01-05T10:07:50.441Z,68.62
2023-01-05T10:10:42.615Z,70.24
2023-01-05T10:13:27.448Z,68.55
2023-01-05T10:15:55.848Z,65.06
2023-01-05T10:18:26.626Z,66.57
2023-01-05T10:20:53.529Z,66.64
2023-01-05T10:23:42.506Z,64.78
2023-01-05T10:26:25.242Z,64.71
2023-01-05T10:29:08.725Z,63.28
2023-01-05T10:31:42.116Z,63.72
2023-01-05T10:34:33.007Z,63.62
2023-01-05T10:37:24.636Z,62.24
2023-01-05T10:39:56.662Z,62.54
2023-01-05T10:42:23.616Z,62.99
2023-01-05T10:44:57.061Z,61.72
2023-01-05T10:47:26.663Z,60.75
2023-01-05T10:49:54.043Z,62.02
2023-01-05T10:52:22.970Z,61.97
2023-01-05T10:55:02.287Z,60.60
2023-01-05T10:57:34.616Z,61.15
2023-01-05T11:00:22.073Z,60.54
2023-01-05T11:02:58.018Z,60.90
2023-01-05T11:05:36.686Z,62.58
2023-01-05T11:08:07.541Z,63.33
2023-01-05T11:10:49.112Z,63.38
2023-01-05T11:13:16.148Z,61.89
2023-01-05T11:16:12.890Z,62.43
2023-01-05T11:19:10.561Z,62.01
2023-01-05T11:21:45.748Z,60.73
2023-01-05T11:24:25.111Z,61.37
2023-01-05T11:26:59.423Z,63.04
2023-01-05T11:29:26.465Z,62.58
2023-01-05T11:32:05.507Z,61.46
2023-01-05T11:34:38.571Z,63.87
2023-01-05T11:37:28.762Z,63.38
2023-01-05T11:40:06.134Z,63.63
2023-01-05T11:51:50.581Z,64.76
2023-01-05T11:54:34.171Z,63.67
2023-01-05T11:57:30.929Z,60.90
2023-01-05T11:59:58.924Z,62.74
2023-01-05T12:02:44.029Z,59.75
2023-01-05T12:05:30.721Z,60.68
2023-01-05T12:08:07.948Z,61.49
2023-01-05T12:10:47.425Z,61.85
2023-01-05T12:14:02.142Z,62.06
2023-01-05T12:16:56.827Z,60.67
2023-01-05T12:19:43.212Z,59.81
2023-01-05T12:22:46.398Z,61.17
2023-01-05T12:25:26.516Z,61.45
2023-01-05T12:28:05.029Z,60.81
2023-01-05T12:34:18.596Z,60.80
2023-01-05T12:37:00.730Z,60.10
2023-01-05T12:39:41.955Z,59.71
2023-01-05T12:42:35.591Z,59.74
2023-01-05T12:45:31.835Z,60.31
2023-01-05T12:48:08.469Z,60.28
2023-01-05T12:50:52.771Z,60.26
2023-01-05T12:53:43.563Z,61.21
2023-01-05T12:56:23.670Z,61.26
2023-01-05T12:59:23.698Z,60.86
2023-01-05T13:02:04.780Z,60.10
2023-01-05T13:04:49.396Z,59.27
2023-01-05T13:07:25.505Z,58.81
2023-01-05T13:10:03.902Z,59.45
2023-01-05T13:12:32.096Z,59.41
2023-01-05T13:15:17.365Z,60.55
2023-01-05T13:17:53.805Z,60.16
2023-01-05T13:20:39.017Z,60.42
2023-01-05T13:23:22.838Z,60.51
2023-01-05T13:26:02.086Z,60.66
2023-01-05T13:28:31.303Z,60.75
2023-01-05T13:31:37.133Z,61.43
2023-01-05T13:34:31.931Z,61.31
2023-01-05T13:37:22.018Z,61.94
2023-01-05T13:40:09.478Z,62.01
2023-01-05T13:43:01.460Z,61.98
2023-01-05T13:45:53.910Z,61.97
2023-01-05T13:49:04.576Z,62.56
2023-01-05T13:51:56.420Z,61.65
2023-01-05T13:55:02.394Z,61.89
2023-01-05T13:57:39.723Z,62.49
2023-01-05T14:00:21.564Z,63.04
2023-01-05T14:03:00.525Z,63.69
2023-01-05T14:05:37.237Z,63.64
2023-01-05T14:20:39.628Z,63.09
2023-01-05T14:37:28.326Z,65.86
2023-01-05T14:46:48.546Z,67.37
2023-01-05T20:18:00.429Z,100.00
2023-01-05T21:23:43.701Z,100.00
2023-01-05T21:31:56.821Z,100.00
2023-01-05T21:34:30.452Z,100.00
2023-01-05T21:36:57.778Z,100.00
2023-01-05T21:39:28.845Z,100.00
2023-01-05T21:42:20.538Z,100.00
2023-01-05T21:45:03.110Z,100.00
2023-01-05T21:47:48.037Z,100.00
2023-01-05T21:50:47.749Z,100.00
2023-01-05T21:53:36.151Z,100.00
2023-01-05T21:56:30.051Z,100.00
2023-01-05T21:59:12.456Z,100.00
2023-01-05T22:01:44.370Z,100.00
2023-01-05T22:04:14.704Z,100.00
2023-01-05T22:06:41.735Z,100.00
2023-01-05T22:09:09.741Z,100.00
2023-01-05T22:11:41.311Z,100.00
2023-01-05T22:14:08.726Z,100.00
2023-01-05T22:16:36.034Z,100.00
2023-01-05T22:19:03.541Z,100.00
2023-01-05T22:21:31.249Z,100.00
2023-01-05T22:24:17.600Z,100.00
